Here is the Quick Look data you requested

The Data originates at the National Weather Service, and is made available here by the UAlbany Department of Atmospheric and Environmental Sciences

Surface Observations

KBID 142056Z AUTO 30010G19KT 10SM FEW044 M03/M11 A2981 RMK AO2 SLP098 T10281106
 53040 FZRANO=
KOQU 142050Z 31015KT 15SM SKC M03/M15 A2977=
KPVD 142051Z 30015G24KT 10SM FEW030 M03/M14 A2979 RMK AO2 SLP087 T10281144
 53037=
KSFZ 142056Z AUTO 27010G18KT 10SM CLR M04/M14 A2976 RMK AO2 PRESRR SLP027
 T10441144 53038 FZRANO=
KUUU 142053Z AUTO 29013G26KT 10SM CLR M03/M14 A2977 RMK AO2 PK WND 28026/2051
 SLP081 T10281139 53034=
KWST 142053Z AUTO 31009G17KT 10SM CLR M02/M15 A2982 RMK AO2 SLP097 T10221150
 53041=